Terminal Aerodrome Forecast
Issued by NWS Green Bay, WI

Home | Current Version | Previous Version | Text Only | Print | Product List | Glossary Off
Versions: 1 2 3 4 5 6 7 8 9 10 11 12 13 14 15 16 17 18 19 20 21 22 23 24 25 26 27 28 29 30 31

000
FTUS43 KGRB 170500
TAFGRB
TAF
KGRB 170520Z 1706/1806 20004KT P6SM SCT090
      TEMPO 1706/1709 BKN090
     FM170900 28003KT P6SM SCT060 BKN090
     FM171200 03004KT P6SM SCT030 BKN080
     FM171600 27006KT P6SM SCT100
     FM172300 VRB03KT P6SM SKC=

USA.gov is the U.S. government's official web portal to all federal, state and local government web resources and services.